createdAt,value
2018-05-19T08:49:33.934Z,17.30
2018-05-19T09:23:55.011Z,10.90
2018-05-19T09:26:22.894Z,10.83
2018-05-19T09:28:50.419Z,11.20
2018-05-19T09:31:18.055Z,9.50
2018-05-19T09:33:45.950Z,9.97
2018-05-19T09:36:13.698Z,10.10
2018-05-19T09:38:41.300Z,9.23
2018-05-19T09:41:08.792Z,8.80
2018-05-19T09:43:36.436Z,7.67
2018-05-19T09:46:04.083Z,7.68
2018-05-19T09:48:31.700Z,7.93
2018-05-19T09:50:59.279Z,7.90
2018-05-19T09:53:26.917Z,7.90
2018-05-19T09:55:54.940Z,8.20
2018-05-19T10:05:43.913Z,9.20
2018-05-19T10:13:05.948Z,9.73
2018-05-19T10:15:33.548Z,10.77
2018-05-19T10:18:01.098Z,11.10
2018-05-19T10:20:29.079Z,10.50
2018-05-19T10:22:56.821Z,11.10
2018-05-19T10:25:24.577Z,10.37
2018-05-19T10:27:52.203Z,8.33
2018-05-19T10:30:19.829Z,7.18
2018-05-19T10:32:47.335Z,8.87
2018-05-19T10:35:14.816Z,8.47
2018-05-19T10:37:42.275Z,6.53
2018-05-19T10:40:09.931Z,6.80
2018-05-19T10:42:37.481Z,6.60
2018-05-19T10:45:04.943Z,5.63
2018-05-19T10:47:32.581Z,6.47
2018-05-19T10:50:00.094Z,6.50
2018-05-19T10:52:27.856Z,6.30
2018-05-19T10:54:55.414Z,5.80
2018-05-19T10:57:23.016Z,5.57
2018-05-19T10:59:50.489Z,6.60
2018-05-19T11:02:17.979Z,5.57
2018-05-19T11:04:45.473Z,5.87
2018-05-19T11:07:14.070Z,6.07
2018-05-19T11:09:41.698Z,5.12
2018-05-19T11:12:09.337Z,5.12
2018-05-19T11:14:36.794Z,6.27
2018-05-19T11:17:04.275Z,6.55
2018-05-19T11:19:31.784Z,8.35
2018-05-19T11:21:59.451Z,8.48
2018-05-19T11:24:27.031Z,8.77
2018-05-19T11:26:54.525Z,7.28
2018-05-19T11:29:22.159Z,6.50
2018-05-19T11:31:49.699Z,6.57
2018-05-19T11:34:17.180Z,6.60
2018-05-19T11:36:44.781Z,7.87
2018-05-19T11:39:12.280Z,6.62
2018-05-19T11:41:39.946Z,7.47
2018-05-19T11:44:07.366Z,6.93
2018-05-19T11:46:34.834Z,6.05
2018-05-19T11:49:02.585Z,5.78
2018-05-19T11:51:30.385Z,6.05
2018-05-19T11:53:57.962Z,6.55
2018-05-19T11:56:25.541Z,6.80
2018-05-19T11:58:53.166Z,6.72
2018-05-19T12:01:20.747Z,6.12
2018-05-19T12:03:48.334Z,6.60
2018-05-19T12:06:15.783Z,7.87
2018-05-19T12:08:43.308Z,7.25
2018-05-19T12:11:10.987Z,7.80
2018-05-19T12:13:38.611Z,6.97
2018-05-19T12:16:06.161Z,8.23
2018-05-19T12:18:33.786Z,6.97
2018-05-19T12:21:01.280Z,6.87
2018-05-19T12:23:28.898Z,7.00
2018-05-19T12:25:56.545Z,7.00
2018-05-19T12:28:24.420Z,6.82
2018-05-19T12:30:51.925Z,7.30
2018-05-19T12:33:19.530Z,6.05
2018-05-19T12:35:47.171Z,6.32
2018-05-19T12:38:14.911Z,5.57
2018-05-19T12:40:42.365Z,6.53
2018-05-19T12:43:09.905Z,6.35
2018-05-19T12:45:37.506Z,5.70
2018-05-19T12:48:05.075Z,6.93
2018-05-19T12:50:32.889Z,6.28
2018-05-19T12:53:00.424Z,6.65
2018-05-19T12:55:27.931Z,7.60
2018-05-19T12:57:55.752Z,8.40
2018-05-19T13:00:23.230Z,8.53
2018-05-19T13:02:50.809Z,8.80
2018-05-19T13:05:18.395Z,10.40
2018-05-19T13:07:46.001Z,10.07
2018-05-19T13:10:13.467Z,9.50
2018-05-19T13:12:41.154Z,10.13
2018-05-19T13:15:08.720Z,10.67
2018-05-19T13:17:36.315Z,10.77
2018-05-19T13:20:03.785Z,10.43
2018-05-19T13:22:31.445Z,10.25
2018-05-19T13:24:59.115Z,9.63
2018-05-19T13:27:27.059Z,8.50
2018-05-19T13:29:54.619Z,9.27
2018-05-19T13:32:22.070Z,9.00
2018-05-19T13:34:49.735Z,8.70
2018-05-19T13:37:17.246Z,8.63
2018-05-19T13:39:44.835Z,8.47
2018-05-19T13:42:12.635Z,10.00
2018-05-19T13:44:40.470Z,8.40
2018-05-19T13:52:02.775Z,9.90
2018-05-19T13:59:24.396Z,8.90
2018-05-19T14:11:40.935Z,8.00
2018-05-19T14:14:08.447Z,8.00
2018-05-19T14:16:36.051Z,7.75
2018-05-19T14:26:24.872Z,7.97
2018-05-19T14:31:19.624Z,8.37
2018-05-19T14:33:47.120Z,7.80
2018-05-19T14:41:08.944Z,7.55
2018-05-19T14:48:30.598Z,9.25
2018-05-19T14:50:58.107Z,8.00
2018-05-19T14:53:26.025Z,8.80
2018-05-19T14:58:20.650Z,9.10
2018-05-19T15:05:42.691Z,9.80
2018-05-19T15:08:10.205Z,9.30
2018-05-19T15:10:37.851Z,9.70
2018-05-19T15:20:26.677Z,10.80
2018-05-19T16:11:57.592Z,9.63
2018-05-19T16:14:25.396Z,7.90
